Time;durP1;ratioP1;P1;durP2;ratioP2;P2;SDS_P1;SDS_P2;PMS_P1;PMS_P2;Temp;Humidity;BMP_temperature;BMP_pressure;BME280_temperature;BME280_humidity;BME280_pressure;Samples;Min_cycle;Max_cycle;Signal;HPM_P1;HPM_P2
2024/01/16 00:00:09;;;;;;;1999.90;999.90;;;;;;;0.30;72.01;94957.44;5113906;28;20130;-65
2024/01/16 00:02:37;;;;;;;1999.90;999.90;;;;;;;0.34;72.18;94959.06;5113962;28;20086;-66
2024/01/16 00:05:04;;;;;;;1999.90;999.90;;;;;;;0.38;72.97;94957.25;5114271;28;20043;-66
2024/01/16 00:07:34;;;;;;;1999.90;999.90;;;;;;;0.41;72.94;94966.63;5114316;28;20072;-65
2024/01/16 00:10:02;;;;;;;1999.90;999.90;;;;;;;0.41;72.94;94970.06;5114187;28;20101;-63
2024/01/16 00:12:29;;;;;;;1999.90;999.90;;;;;;;0.37;73.13;94966.69;5113884;28;20043;-66
2024/01/16 00:14:56;;;;;;;1999.90;999.90;;;;;;;0.37;73.29;94968.44;5113720;28;20059;-67
2024/01/16 00:17:25;;;;;;;1999.90;999.90;;;;;;;0.41;73.15;94964.91;5113660;28;20043;-68
2024/01/16 00:19:52;;;;;;;1999.90;999.90;;;;;;;0.44;72.85;94961.41;5113715;28;20039;-67
2024/01/16 00:22:20;;;;;;;1999.90;999.90;;;;;;;0.42;72.12;94958.88;5113679;28;20044;-65
2024/01/16 00:24:49;;;;;;;1999.90;999.90;;;;;;;0.42;72.47;94963.19;5113711;28;20047;-64
2024/01/16 00:27:17;;;;;;;1999.90;999.90;;;;;;;0.41;73.71;94959.75;5113626;28;20102;-66
2024/01/16 00:29:44;;;;;;;1999.90;999.90;;;;;;;0.44;74.33;94966.56;5113614;28;20075;-64
2024/01/16 00:32:15;;;;;;;1999.90;999.90;;;;;;;0.51;74.29;94968.09;5113557;28;20555;-66
2024/01/16 00:34:45;;;;;;;1999.90;999.90;;;;;;;0.54;74.16;94962.88;5113619;28;20051;-66
2024/01/16 00:37:14;;;;;;;1999.90;999.90;;;;;;;0.57;73.83;94952.53;5113533;28;20044;-64
2024/01/16 00:39:41;;;;;;;1999.90;999.90;;;;;;;0.49;73.77;94946.72;5113343;28;20048;-63
2024/01/16 00:42:08;;;;;;;1999.90;999.90;;;;;;;0.49;73.75;94934.69;5113424;28;20054;-64
2024/01/16 00:44:35;;;;;;;1999.90;999.90;;;;;;;0.53;72.27;94924.31;5113523;28;20044;-67
2024/01/16 00:47:05;;;;;;;1999.90;999.90;;;;;;;0.54;73.19;94928.59;5113469;28;20047;-68
2024/01/16 00:49:32;;;;;;;1999.90;999.90;;;;;;;0.59;73.53;94931.91;5119070;28;20051;-66
2024/01/16 00:52:01;;;;;;;1999.90;999.90;;;;;;;0.62;73.59;94930.09;5119939;28;20507;-64
2024/01/16 00:54:29;;;;;;;1999.90;999.90;;;;;;;0.63;73.23;94931.78;5120246;28;20044;-63
2024/01/16 00:56:59;;;;;;;1999.90;999.90;;;;;;;0.66;73.52;94932.59;5120427;28;20057;-62
2024/01/16 00:59:27;;;;;;;1999.90;999.90;;;;;;;0.66;73.84;94925.72;5120425;28;20472;-67
2024/01/16 01:01:55;;;;;;;1999.90;999.90;;;;;;;0.69;74.10;94920.50;5120201;28;20047;-67
2024/01/16 01:04:22;;;;;;;1999.90;999.90;;;;;;;0.66;74.12;94915.41;5120359;28;20043;-63
2024/01/16 01:06:50;;;;;;;1999.90;999.90;;;;;;;0.69;74.32;94914.50;5120075;28;20043;-65
2024/01/16 01:09:18;;;;;;;1999.90;999.90;;;;;;;0.70;74.02;94916.19;5120058;28;20413;-66
2024/01/16 01:11:46;;;;;;;1999.90;999.90;;;;;;;0.63;74.64;94912.91;5120057;28;20405;-65
2024/01/16 01:14:14;;;;;;;1999.90;999.90;;;;;;;0.70;75.10;94911.03;5120249;28;20044;-67
2024/01/16 01:16:42;;;;;;;1999.90;999.90;;;;;;;0.73;75.06;94916.13;5120272;28;20052;-65
2024/01/16 01:19:09;;;;;;;1999.90;999.90;;;;;;;0.70;74.81;94911.91;5120127;28;20485;-65
2024/01/16 01:21:37;;;;;;;1999.90;999.90;;;;;;;0.69;74.77;94915.34;5119909;28;20043;-63
2024/01/16 01:24:05;;;;;;;1999.90;999.90;;;;;;;0.62;75.41;94911.22;5120157;28;20047;-65
2024/01/16 01:26:34;;;;;;;1999.90;999.90;;;;;;;0.60;75.50;94911.28;5120132;28;20441;-64
2024/01/16 01:29:01;;;;;;;1999.90;999.90;;;;;;;0.50;76.23;94908.09;5119942;28;20126;-67
2024/01/16 01:31:28;;;;;;;1999.90;999.90;;;;;;;0.42;76.93;94891.97;5119729;28;20523;-63
2024/01/16 01:33:55;;;;;;;1999.90;999.90;;;;;;;0.39;77.45;94899.78;5119810;28;20044;-64
2024/01/16 01:36:22;;;;;;;1999.90;999.90;;;;;;;0.42;77.34;94894.56;5119833;28;20039;-68
2024/01/16 01:38:49;;;;;;;1999.90;999.90;;;;;;;0.46;76.56;94885.03;5119696;28;20047;-67
2024/01/16 01:41:16;;;;;;;1999.90;999.90;;;;;;;0.54;75.06;94895.16;5119868;28;20051;-64
2024/01/16 01:43:45;;;;;;;1999.90;999.90;;;;;;;0.58;75.21;94889.03;5119992;28;20047;-69
2024/01/16 01:46:17;;;;;;;1999.90;999.90;;;;;;;0.62;75.15;94886.34;5119751;28;20043;-64
2024/01/16 01:48:45;;;;;;;1999.90;999.90;;;;;;;0.68;74.92;94893.06;5119779;28;20048;-67
2024/01/16 01:51:14;;;;;;;1999.90;999.90;;;;;;;0.72;74.38;94888.69;5119489;28;20048;-67
2024/01/16 01:53:44;;;;;;;1999.90;999.90;;;;;;;0.73;74.88;94888.63;5119880;28;20047;-66
2024/01/16 01:56:15;;;;;;;1999.90;999.90;;;;;;;0.71;74.61;94892.13;5119801;28;20126;-64
2024/01/16 01:58:47;;;;;;;1999.90;999.90;;;;;;;0.70;74.69;94882.72;5119970;28;20068;-67
2024/01/16 02:01:16;;;;;;;1999.90;999.90;;;;;;;0.71;74.55;94885.28;5116175;28;20086;-65
2024/01/16 02:03:44;;;;;;;1999.90;999.90;;;;;;;0.72;74.61;94876.66;5116455;28;20043;-66
2024/01/16 02:06:12;;;;;;;1999.90;999.90;;;;;;;0.77;74.36;94891.13;5116378;28;20047;-69
2024/01/16 02:08:40;;;;;;;1999.90;999.90;;;;;;;0.66;74.30;94888.84;5116315;28;20120;-66
2024/01/16 02:11:08;;;;;;;1999.90;999.90;;;;;;;0.63;75.10;94888.03;5116161;28;20051;-69
2024/01/16 02:13:35;;;;;;;1999.90;999.90;;;;;;;0.64;74.51;94888.88;5116070;28;20500;-65
2024/01/16 02:16:05;;;;;;;1999.90;999.90;;;;;;;0.58;74.60;94889.91;5116231;28;20105;-69
2024/01/16 02:18:33;;;;;;;1999.90;999.90;;;;;;;0.53;74.65;94884.00;5115978;28;20104;-65
2024/01/16 02:21:03;;;;;;;1999.90;999.90;;;;;;;0.41;75.37;94886.88;5115988;28;20568;-65
2024/01/16 02:23:32;;;;;;;;;;;;;;;0.37;75.50;94883.53;5116452;28;20047;-65
2024/01/16 02:26:00;;;;;;;1999.90;999.90;;;;;;;0.30;75.49;94882.00;5115893;28;19967;-67
2024/01/16 02:28:27;;;;;;;1999.90;999.90;;;;;;;0.28;76.07;94886.31;5115987;28;20109;-65
2024/01/16 02:30:55;;;;;;;1999.90;999.90;;;;;;;0.24;76.08;94878.69;5115923;28;20093;-65
2024/01/16 02:33:23;;;;;;;1999.90;999.90;;;;;;;0.20;76.52;94895.06;5115833;28;20516;-66
2024/01/16 02:35:50;;;;;;;1999.90;999.90;;;;;;;0.14;77.03;94889.22;5115882;28;20047;-65
2024/01/16 02:38:17;;;;;;;1999.90;999.90;;;;;;;0.18;77.37;94888.28;5115576;28;20138;-66
2024/01/16 02:40:46;;;;;;;1999.90;999.90;;;;;;;0.20;77.21;94889.94;5115808;28;20047;-66
2024/01/16 02:43:13;;;;;;;1999.90;999.90;;;;;;;0.22;76.97;94892.47;5115735;28;20051;-68
2024/01/16 02:45:40;;;;;;;1999.90;999.90;;;;;;;0.21;77.13;94908.78;5115751;28;20047;-65
2024/01/16 02:48:08;;;;;;;1999.90;999.90;;;;;;;0.21;77.33;94903.66;5115490;28;20401;-64
2024/01/16 02:50:35;;;;;;;1999.90;999.90;;;;;;;0.20;77.64;94912.22;5115509;28;20039;-67
2024/01/16 02:53:02;;;;;;;1999.90;999.90;;;;;;;0.17;77.95;94908.00;5115119;28;20055;-63
2024/01/16 02:55:31;;;;;;;1999.90;999.90;;;;;;;0.17;78.41;94905.44;5115305;28;20079;-67
2024/01/16 02:57:59;;;;;;;1999.90;999.90;;;;;;;0.22;78.11;94915.63;5115266;28;20050;-70
2024/01/16 03:00:27;;;;;;;1999.90;999.90;;;;;;;0.27;78.12;94918.91;5115228;28;20404;-67
2024/01/16 03:02:54;;;;;;;1999.90;999.90;;;;;;;0.35;77.89;94918.75;5115159;28;20093;-66
2024/01/16 03:05:22;;;;;;;1999.90;999.90;;;;;;;0.41;77.42;94917.75;5115159;28;20065;-65
2024/01/16 03:07:49;;;;;;;1999.90;999.90;;;;;;;0.44;77.48;94912.53;5115124;28;20044;-65
2024/01/16 03:10:16;;;;;;;1999.90;999.90;;;;;;;0.44;77.70;94912.53;5115187;28;20397;-62
2024/01/16 03:12:44;;;;;;;1999.90;999.90;;;;;;;0.52;77.82;94913.19;5113979;28;20032;-66
2024/01/16 03:15:13;;;;;;;1999.90;999.90;;;;;;;0.50;77.68;94920.97;5114927;28;20051;-63
2024/01/16 03:17:39;;;;;;;1999.90;999.90;;;;;;;0.57;77.66;94928.53;5115188;28;20075;-68
2024/01/16 03:20:08;;;;;;;1999.90;999.90;;;;;;;0.59;77.82;94937.03;5114709;28;20044;-70
2024/01/16 03:22:35;;;;;;;1999.90;999.90;;;;;;;0.59;77.60;94940.47;5114874;28;20119;-68
2024/01/16 03:25:03;;;;;;;1999.90;999.90;;;;;;;0.52;76.98;94943.22;5114791;28;20055;-68
2024/01/16 03:27:30;;;;;;;1999.90;999.90;;;;;;;0.60;76.52;94946.47;5114703;28;20062;-70
2024/01/16 03:29:57;;;;;;;1999.90;999.90;;;;;;;0.66;77.04;94946.31;5114920;28;20563;-69
2024/01/16 03:32:25;;;;;;;1999.90;999.90;;;;;;;0.62;78.41;94939.53;5114707;28;20135;-66
2024/01/16 03:34:52;;;;;;;1999.90;999.90;;;;;;;0.68;78.36;94947.13;5114852;28;20054;-68
2024/01/16 03:37:19;;;;;;;1999.90;999.90;;;;;;;0.65;78.01;94938.63;5114543;28;20481;-64
2024/01/16 03:39:47;;;;;;;1999.90;999.90;;;;;;;0.62;78.11;94948.13;5114478;28;20779;-65
2024/01/16 03:42:14;;;;;;;1999.90;999.90;;;;;;;0.64;77.95;94945.50;5114528;28;20044;-65
2024/01/16 03:44:41;;;;;;;1999.90;999.90;;;;;;;0.68;79.06;94947.13;5114658;28;20508;-65
2024/01/16 03:47:08;;;;;;;1999.90;999.90;;;;;;;0.77;79.29;94942.63;5114546;28;20043;-65
2024/01/16 03:49:37;;;;;;;1999.90;999.90;;;;;;;0.80;78.54;94943.41;5114484;28;20047;-69
2024/01/16 03:52:04;;;;;;;1999.90;999.90;;;;;;;0.75;78.88;94940.94;5114227;28;20126;-67
2024/01/16 03:54:31;;;;;;;1999.90;999.90;;;;;;;0.82;79.06;94948.50;5114438;28;20043;-64
2024/01/16 03:56:58;;;;;;;1999.90;999.90;;;;;;;0.88;78.64;94956.91;5114294;28;20440;-65
2024/01/16 03:59:25;;;;;;;1999.90;999.90;;;;;;;0.91;78.08;94958.59;5114066;28;20485;-66
2024/01/16 04:01:52;;;;;;;1999.90;999.90;;;;;;;0.93;78.04;94961.94;5114250;28;20043;-67
2024/01/16 04:04:19;;;;;;;1999.90;999.90;;;;;;;0.96;78.12;94967.03;5114166;28;20086;-69
2024/01/16 04:06:48;;;;;;;1999.90;999.90;;;;;;;0.86;79.06;94966.41;5113967;28;20109;-66
2024/01/16 04:09:15;;;;;;;1999.90;999.90;;;;;;;0.85;79.27;94971.59;5114089;28;20046;-67
2024/01/16 04:11:42;;;;;;;1999.90;999.90;;;;;;;0.93;78.94;94974.81;5114302;28;20071;-65
2024/01/16 04:14:09;;;;;;;1999.90;999.90;;;;;;;0.98;79.23;94980.72;5114129;28;20044;-68
2024/01/16 04:16:36;;;;;;;1999.90;999.90;;;;;;;1.04;78.62;94995.16;5113834;28;20043;-68
2024/01/16 04:19:03;;;;;;;1999.90;999.90;;;;;;;1.07;77.63;94994.22;5113864;28;20057;-65
2024/01/16 04:21:30;;;;;;;1999.90;999.90;;;;;;;1.09;77.77;94998.44;5113889;28;20048;-67
2024/01/16 04:23:59;;;;;;;1999.90;999.90;;;;;;;1.29;78.30;95004.84;5113388;28;20486;-67
2024/01/16 04:26:26;;;;;;;1999.90;999.90;;;;;;;1.45;77.55;95013.03;5113995;28;20075;-65
2024/01/16 04:28:53;;;;;;;1999.90;999.90;;;;;;;1.50;76.89;95016.31;5113983;28;20051;-69
2024/01/16 04:31:22;;;;;;;1999.90;999.90;;;;;;;1.57;76.33;95017.00;5113759;28;20171;-67
2024/01/16 04:33:49;;;;;;;1999.90;999.90;;;;;;;1.54;76.24;95014.50;5113614;28;20117;-69
2024/01/16 04:36:16;;;;;;;1999.90;999.90;;;;;;;1.65;75.68;95014.19;5113728;28;20076;-65
2024/01/16 04:38:43;;;;;;;1999.90;999.90;;;;;;;1.80;75.10;95023.25;5113430;28;20087;-66
2024/01/16 04:41:12;;;;;;;1999.90;999.90;;;;;;;1.86;74.95;95030.81;5113672;28;20100;-68
2024/01/16 04:43:39;;;;;;;1999.90;999.90;;;;;;;1.89;73.90;95032.47;5113519;28;20065;-65
2024/01/16 04:46:06;;;;;;;1999.90;999.90;;;;;;;1.78;72.90;95043.09;5113657;28;20088;-67
2024/01/16 04:48:33;;;;;;;1999.90;999.90;;;;;;;1.69;72.38;95049.34;5113523;28;20083;-68
2024/01/16 04:51:00;;;;;;;1999.90;999.90;;;;;;;1.56;71.90;95060.88;5113336;28;20523;-69
2024/01/16 04:53:27;;;;;;;1999.90;999.90;;;;;;;1.37;72.16;95074.22;5113470;28;20040;-68
2024/01/16 04:55:54;;;;;;;1999.90;999.90;;;;;;;1.39;74.12;95080.19;5113436;28;20183;-67
2024/01/16 04:58:23;;;;;;;1999.90;999.90;;;;;;;1.53;75.59;95084.97;5113355;28;20071;-64
2024/01/16 05:00:50;;;;;;;1999.90;999.90;;;;;;;2.04;74.85;95087.13;5113340;28;20085;-69
2024/01/16 05:03:17;;;;;;;1999.90;999.90;;;;;;;2.31;73.82;95085.47;5113563;28;20057;-67
2024/01/16 05:05:45;;;;;;;1999.90;999.90;;;;;;;2.75;73.32;95098.00;5113588;28;20081;-68
2024/01/16 05:08:12;;;;;;;1999.90;999.90;;;;;;;3.06;73.02;95098.78;5113337;28;20054;-62
2024/01/16 05:10:39;;;;;;;1999.90;999.90;;;;;;;3.36;73.39;95095.25;5113241;28;20047;-67
2024/01/16 05:13:06;;;;;;;1999.90;999.90;;;;;;;3.56;73.43;95094.59;5113602;28;20051;-68
2024/01/16 05:15:34;;;;;;;1999.90;999.90;;;;;;;3.84;73.20;95098.84;5113479;28;20050;-70
2024/01/16 05:18:03;;;;;;;1999.90;999.90;;;;;;;4.00;72.43;95106.09;5113284;28;20143;-67
2024/01/16 05:20:30;;;;;;;1999.90;999.90;;;;;;;4.13;72.28;95106.47;5113481;28;20512;-67
2024/01/16 05:22:57;;;;;;;1999.90;999.90;;;;;;;4.23;71.92;95096.63;5113102;28;20056;-67
2024/01/16 05:25:24;;;;;;;1999.90;999.90;;;;;;;4.29;71.50;95105.03;5113198;28;20489;-66
2024/01/16 05:27:51;;;;;;;1999.90;999.90;;;;;;;4.35;71.25;95097.94;5113209;28;20048;-66
2024/01/16 05:30:18;;;;;;;1999.90;999.90;;;;;;;4.41;70.65;95108.94;5113146;28;20047;-67
2024/01/16 05:32:47;;;;;;;1999.90;999.90;;;;;;;4.49;70.12;95106.03;5113012;28;20054;-68
2024/01/16 05:35:15;;;;;;;1999.90;999.90;;;;;;;4.51;69.83;95127.56;5114150;28;20059;-69
2024/01/16 05:37:42;;;;;;;1999.90;999.90;;;;;;;4.53;69.56;95149.06;5116810;28;20080;-67
2024/01/16 05:40:11;;;;;;;1999.90;999.90;;;;;;;4.53;69.03;95154.25;5116708;28;20055;-68
2024/01/16 05:42:39;;;;;;;1999.90;999.90;;;;;;;4.54;69.21;95161.13;5117108;28;20043;-67
2024/01/16 05:45:07;;;;;;;1999.90;999.90;;;;;;;4.55;68.85;95169.75;5117119;28;20126;-66
2024/01/16 05:47:35;;;;;;;1999.90;999.90;;;;;;;4.50;69.10;95177.66;5116655;28;20104;-66
2024/01/16 05:50:04;;;;;;;1999.90;999.90;;;;;;;4.52;68.49;95187.97;5116679;28;20192;-67
2024/01/16 05:52:32;;;;;;;1999.90;999.90;;;;;;;4.50;68.33;95205.31;5116462;28;20058;-69
2024/01/16 05:54:59;;;;;;;1999.90;999.90;;;;;;;4.49;68.37;95213.97;5116675;28;20054;-68
2024/01/16 05:57:26;;;;;;;1999.90;999.90;;;;;;;4.48;67.99;95227.84;5116578;28;20048;-65
2024/01/16 05:59:54;;;;;;;1999.90;999.90;;;;;;;4.48;67.48;95236.44;5116460;28;20538;-67
2024/01/16 06:02:21;;;;;;;1999.90;999.90;;;;;;;4.46;67.44;95250.34;5116440;28;20039;-69
2024/01/16 06:04:48;;;;;;;1999.90;999.90;;;;;;;4.40;67.20;95256.56;5116411;28;20113;-68
2024/01/16 06:07:17;;;;;;;1999.90;999.90;;;;;;;4.39;66.30;95258.31;5116592;28;20043;-70
2024/01/16 06:09:44;;;;;;;1999.90;999.90;;;;;;;4.39;66.09;95262.63;5116308;28;20047;-70
2024/01/16 06:12:12;;;;;;;1999.90;999.90;;;;;;;4.32;65.66;95274.97;5116532;28;20055;-67
2024/01/16 06:14:39;;;;;;;1999.90;999.90;;;;;;;4.29;65.63;95275.06;5116410;28;20040;-68
2024/01/16 06:17:07;;;;;;;1999.90;999.90;;;;;;;4.32;65.38;95281.88;5116323;28;20039;-64
2024/01/16 06:19:34;;;;;;;1999.90;999.90;;;;;;;4.38;64.93;95289.44;5115968;28;20055;-64
2024/01/16 06:22:01;;;;;;;1999.90;999.90;;;;;;;4.45;64.59;95293.50;5116104;28;20071;-66
2024/01/16 06:24:36;;;;;;;1999.90;999.90;;;;;;;4.51;63.53;95297.63;5115994;28;20127;-63
2024/01/16 06:27:04;;;;;;;1999.90;999.90;;;;;;;4.57;63.21;95309.56;5116101;28;20067;-66
2024/01/16 06:29:31;;;;;;;1999.90;999.90;;;;;;;4.63;63.22;95317.94;5115976;28;20052;-68
2024/01/16 06:31:58;;;;;;;1999.90;999.90;;;;;;;5.18;62.31;95313.47;5115907;28;20131;-67
2024/01/16 06:34:25;;;;;;;1999.90;999.90;;;;;;;6.27;58.47;95340.56;5115792;28;20501;-68
2024/01/16 06:36:52;;;;;;;1999.90;999.90;;;;;;;7.18;54.90;95335.06;5115760;28;20101;-69
2024/01/16 06:39:20;;;;;;;1999.90;999.90;;;;;;;8.05;52.21;95352.91;5115702;28;20123;-70
2024/01/16 06:41:48;;;;;;;1999.90;999.90;;;;;;;8.34;50.67;95359.34;5115495;28;20074;-65
2024/01/16 06:44:15;;;;;;;1999.90;999.90;;;;;;;7.77;50.93;95356.78;5115789;28;20079;-64
2024/01/16 06:46:42;;;;;;;1999.90;999.90;;;;;;;7.16;52.12;95359.44;5115538;28;20043;-66
2024/01/16 06:49:09;;;;;;;1999.90;999.90;;;;;;;6.64;53.41;95356.41;5115646;28;20079;-67
2024/01/16 06:51:36;;;;;;;1999.90;999.90;;;;;;;6.43;54.06;95358.09;5115239;28;20097;-69
2024/01/16 06:54:03;;;;;;;1999.90;999.90;;;;;;;6.15;54.34;95360.06;5115671;28;20052;-68
2024/01/16 06:56:30;;;;;;;1999.90;999.90;;;;;;;5.95;54.66;95363.41;5115352;28;20078;-64
2024/01/16 06:58:59;;;;;;;1999.90;999.90;;;;;;;5.78;55.22;95362.28;5115327;28;20043;-66
2024/01/16 07:01:26;;;;;;;1999.90;999.90;;;;;;;5.76;54.74;95368.44;5115312;28;20497;-65
2024/01/16 07:03:53;;;;;;;1999.90;999.90;;;;;;;5.66;54.93;95366.19;5115550;28;20404;-69
2024/01/16 07:06:20;;;;;;;1999.90;999.90;;;;;;;5.69;54.90;95360.88;5115302;28;20043;-68
2024/01/16 07:08:47;;;;;;;1999.90;999.90;;;;;;;5.75;54.12;95362.41;5115447;28;20522;-66
2024/01/16 07:11:15;;;;;;;1999.90;999.90;;;;;;;5.87;53.97;95376.66;5115148;28;20109;-65
2024/01/16 07:13:42;;;;;;;1999.90;999.90;;;;;;;6.09;53.10;95373.28;5115055;28;20401;-67
2024/01/16 07:16:12;;;;;;;1999.90;999.90;;;;;;;6.40;51.94;95385.06;5115046;28;20044;-68
2024/01/16 07:18:40;;;;;;;1999.90;999.90;;;;;;;6.45;51.68;95388.31;5115022;28;20148;-67
2024/01/16 07:21:17;;;;;;;1999.90;999.90;;;;;;;6.43;51.50;95400.53;5114835;28;20383;-69
2024/01/16 07:23:45;;;;;;;1999.90;999.90;;;;;;;6.53;51.44;95416.59;5114863;28;20052;-66
2024/01/16 07:26:13;;;;;;;1999.90;999.90;;;;;;;6.67;51.41;95421.25;5114811;28;20105;-66
2024/01/16 07:28:40;;;;;;;1999.90;999.90;;;;;;;7.01;50.08;95416.41;5114788;28;20048;-64
2024/01/16 07:31:09;;;;;;;1999.90;999.90;;;;;;;7.12;48.81;95412.50;5114647;28;20047;-65
2024/01/16 07:33:38;;;;;;;1999.90;999.90;;;;;;;6.93;48.15;95424.50;5115119;28;20043;-65
2024/01/16 07:36:05;;;;;;;1999.90;999.90;;;;;;;6.81;48.49;95430.22;5114759;28;20390;-64
2024/01/16 07:38:33;;;;;;;1999.90;999.90;;;;;;;6.67;48.95;95439.44;5114791;28;20126;-65
2024/01/16 07:41:01;;;;;;;1999.90;999.90;;;;;;;6.60;49.27;95444.94;5114474;28;20160;-69
2024/01/16 07:43:29;;;;;;;1999.90;999.90;;;;;;;6.39;48.42;95455.25;5114374;28;20054;-69
2024/01/16 07:45:56;;;;;;;1999.90;999.90;;;;;;;6.23;48.77;95462.81;5114448;28;20086;-67
2024/01/16 07:48:23;;;;;;;1999.90;999.90;;;;;;;6.11;49.21;95467.53;5114311;28;20497;-65
2024/01/16 07:50:52;;;;;;;1999.90;999.90;;;;;;;6.11;49.46;95467.53;5114309;28;20503;-68
2024/01/16 07:53:19;;;;;;;1999.90;999.90;;;;;;;5.98;49.35;95471.44;5114205;28;20048;-67
2024/01/16 07:55:46;;;;;;;1999.90;999.90;;;;;;;5.91;49.15;95481.22;5114300;28;20044;-69
2024/01/16 07:58:14;;;;;;;1999.90;999.90;;;;;;;5.96;49.52;95486.25;5113696;28;20090;-69
2024/01/16 08:00:41;;;;;;;1999.90;999.90;;;;;;;5.94;48.93;95491.50;5114115;28;20054;-66
2024/01/16 08:03:11;;;;;;;1999.90;999.90;;;;;;;5.92;49.22;95495.91;5114121;28;20047;-68
2024/01/16 08:05:38;;;;;;;1999.90;999.90;;;;;;;5.84;49.47;95497.94;5114043;28;20485;-67
2024/01/16 08:08:09;;;;;;;1999.90;999.90;;;;;;;5.87;49.71;95511.63;5114265;28;20047;-69
2024/01/16 08:10:36;;;;;;;1999.90;999.90;;;;;;;5.93;49.63;95519.19;5113984;28;20081;-70
2024/01/16 08:13:04;;;;;;;1999.90;999.90;;;;;;;6.13;49.27;95522.00;5114235;28;20050;-65
2024/01/16 08:15:31;;;;;;;1999.90;999.90;;;;;;;6.54;48.54;95536.97;5113969;28;20051;-66
2024/01/16 08:17:58;;;;;;;1999.90;999.90;;;;;;;7.49;46.70;95543.63;5114023;28;20050;-66
2024/01/16 08:20:25;;;;;;;1999.90;999.90;;;;;;;8.27;45.38;95557.72;5114246;28;20080;-67
2024/01/16 08:22:52;;;;;;;1999.90;999.90;;;;;;;8.47;43.06;95560.28;5113998;28;20048;-67
2024/01/16 08:25:21;;;;;;;1999.90;999.90;;;;;;;8.69;43.04;95567.16;5113674;28;20051;-69
2024/01/16 08:27:48;;;;;;;1999.90;999.90;;;;;;;9.30;41.75;95585.19;5113721;28;20094;-66
2024/01/16 08:30:16;;;;;;;1999.90;999.90;;;;;;;9.71;41.10;95589.31;5113752;28;20058;-65
2024/01/16 08:32:43;;;;;;;1999.90;999.90;;;;;;;10.49;39.54;95595.88;5113775;28;20044;-68
2024/01/16 08:35:10;;;;;;;1999.90;999.90;;;;;;;10.53;38.01;95612.22;5113619;28;20490;-64
2024/01/16 08:37:37;;;;;;;1999.90;999.90;;;;;;;9.76;39.54;95598.69;5113730;28;20079;-66
2024/01/16 08:40:05;;;;;;;1999.90;999.90;;;;;;;9.42;40.58;95598.59;5113342;28;20069;-65
2024/01/16 08:42:34;;;;;;;1999.90;999.90;;;;;;;9.00;40.75;95600.56;5113617;28;20044;-67
2024/01/16 08:45:05;;;;;;;1999.90;999.90;;;;;;;8.93;41.45;95594.75;5113560;28;20086;-66
2024/01/16 08:47:32;;;;;;;1999.90;999.90;;;;;;;8.83;41.63;95591.75;5113645;28;20093;-67
2024/01/16 08:49:59;;;;;;;1999.90;999.90;;;;;;;8.85;41.13;95598.56;5113610;28;20051;-68
2024/01/16 08:52:26;;;;;;;1999.90;999.90;;;;;;;9.50;40.42;95577.31;5113445;28;20052;-67
2024/01/16 08:54:53;;;;;;;1999.90;999.90;;;;;;;10.28;39.29;95576.88;5113406;28;20066;-65
2024/01/16 08:57:20;;;;;;;1999.90;999.90;;;;;;;10.87;37.36;95586.88;5113357;28;20105;-68
2024/01/16 08:59:49;;;;;;;1999.90;999.90;;;;;;;10.68;37.06;95597.50;5113345;28;20047;-67
2024/01/16 09:02:16;;;;;;;1999.90;999.90;;;;;;;10.18;37.38;95597.41;5113383;28;20082;-68
2024/01/16 09:04:43;;;;;;;1999.90;999.90;;;;;;;9.65;38.09;95607.03;5113435;28;20078;-68
2024/01/16 09:07:10;;;;;;;1999.90;999.90;;;;;;;9.30;38.79;95636.56;5113176;28;20067;-64
2024/01/16 09:09:37;;;;;;;1999.90;999.90;;;;;;;8.77;39.13;95633.75;5115068;28;20048;-65
2024/01/16 09:12:04;;;;;;;1999.90;999.90;;;;;;;8.54;40.56;95643.44;5117427;28;20540;-67
2024/01/16 09:14:31;;;;;;;1999.90;999.90;;;;;;;8.54;40.54;95644.28;5117569;28;20043;-67
2024/01/16 09:17:00;;;;;;;1999.90;999.90;;;;;;;8.65;40.89;95649.03;5117541;28;20047;-65
2024/01/16 09:19:27;;;;;;;1999.90;999.90;;;;;;;8.77;39.56;95662.41;5117555;28;20546;-67
2024/01/16 09:21:54;;;;;;;1999.90;999.90;;;;;;;8.89;40.41;95671.47;5117330;28;20055;-68
2024/01/16 09:24:21;;;;;;;1999.90;999.90;;;;;;;8.88;39.65;95657.56;5117498;28;20043;-68
2024/01/16 09:26:48;;;;;;;1999.90;999.90;;;;;;;8.81;38.95;95653.53;5117170;28;20142;-70
2024/01/16 09:29:16;;;;;;;1999.90;999.90;;;;;;;8.76;38.92;95661.56;5117163;28;20546;-67
2024/01/16 09:31:43;;;;;;;1999.90;999.90;;;;;;;8.90;39.05;95665.31;5116995;28;20557;-67
2024/01/16 09:34:13;;;;;;;1999.90;999.90;;;;;;;8.65;38.48;95661.22;5117219;28;20051;-63
2024/01/16 09:36:40;;;;;;;1999.90;999.90;;;;;;;8.54;38.56;95672.97;5116969;28;20054;-66
2024/01/16 09:39:08;;;;;;;1999.90;999.90;;;;;;;8.61;38.91;95677.91;5116911;28;20075;-66
2024/01/16 09:41:35;;;;;;;1999.90;999.90;;;;;;;8.63;38.58;95676.91;5117075;28;20051;-65
2024/01/16 09:44:03;;;;;;;1999.90;999.90;;;;;;;8.66;39.22;95684.59;5116825;28;20090;-67
2024/01/16 09:46:32;;;;;;;1999.90;999.90;;;;;;;8.53;38.52;95681.66;5116914;28;20066;-65
2024/01/16 09:49:01;;;;;;;1999.90;999.90;;;;;;;8.47;39.15;95676.72;5116745;28;20071;-64
2024/01/16 09:51:30;;;;;;;1999.90;999.90;;;;;;;8.47;39.15;95679.31;5116547;28;20058;-65
2024/01/16 09:53:57;;;;;;;1999.90;999.90;;;;;;;8.60;38.58;95677.06;5116757;28;20048;-64
2024/01/16 09:56:25;;;;;;;1999.90;999.90;;;;;;;8.69;38.17;95683.63;5116692;28;20047;-67
2024/01/16 09:58:59;;;;;;;1999.90;999.90;;;;;;;8.93;38.48;95692.13;5116451;28;20043;-66
2024/01/16 10:01:28;;;;;;;1999.90;999.90;;;;;;;9.06;37.49;95696.78;5116322;28;20141;-65
2024/01/16 10:03:56;;;;;;;1999.90;999.90;;;;;;;9.01;37.20;95690.91;5116545;28;20462;-67
2024/01/16 10:06:25;;;;;;;1999.90;999.90;;;;;;;9.23;36.54;95707.31;5116284;28;20047;-67
2024/01/16 10:08:54;;;;;;;1999.90;999.90;;;;;;;9.33;35.33;95704.28;5116437;28;20104;-67
2024/01/16 10:11:23;;;;;;;1999.90;999.90;;;;;;;9.34;33.44;95698.94;5116328;28;20044;-65
2024/01/16 10:13:51;;;;;;;1999.90;999.90;;;;;;;9.29;34.97;95711.38;5116638;28;20176;-69
2024/01/16 10:16:18;;;;;;;1999.90;999.90;;;;;;;9.33;33.49;95709.50;5116228;28;20058;-68
2024/01/16 10:18:45;;;;;;;1999.90;999.90;;;;;;;9.43;33.71;95708.16;5116192;28;20055;-65
2024/01/16 10:21:22;;;;;;;1999.90;999.90;;;;;;;9.48;33.66;95707.91;5115444;28;20051;-67
2024/01/16 10:23:50;;;;;;;1999.90;999.90;;;;;;;9.40;33.69;95721.34;5116178;28;20047;-68
2024/01/16 10:26:19;;;;;;;1999.90;999.90;;;;;;;9.39;33.54;95714.41;5116277;28;20139;-63
2024/01/16 10:28:46;;;;;;;1999.90;999.90;;;;;;;9.45;33.30;95711.50;5115901;28;20051;-65
2024/01/16 10:31:15;;;;;;;1999.90;999.90;;;;;;;9.18;33.30;95726.69;5115901;28;20051;-67
2024/01/16 10:33:42;;;;;;;1999.90;999.90;;;;;;;8.98;33.88;95711.00;5115840;28;20123;-68
2024/01/16 10:36:11;;;;;;;1999.90;999.90;;;;;;;8.91;33.29;95706.16;5115831;28;20134;-66
2024/01/16 10:38:39;;;;;;;1999.90;999.90;;;;;;;8.85;33.94;95723.75;5115978;28;20052;-65
2024/01/16 10:41:07;;;;;;;1999.90;999.90;;;;;;;8.92;33.97;95711.31;5115794;28;20087;-63
2024/01/16 10:43:36;;;;;;;1999.90;999.90;;;;;;;8.85;34.30;95708.09;5115938;28;20071;-69
2024/01/16 10:46:14;;;;;;;1999.90;999.90;;;;;;;8.88;33.59;95722.75;5115931;28;20117;-67
2024/01/16 10:48:44;;;;;;;1999.90;999.90;;;;;;;8.84;34.28;95722.06;5115872;28;20188;-65
2024/01/16 10:51:13;;;;;;;1999.90;999.90;;;;;;;8.68;33.65;95721.91;5115358;28;20556;-65
2024/01/16 10:53:44;;;;;;;1999.90;999.90;;;;;;;8.71;34.44;95744.38;5115609;28;20047;-67
2024/01/16 10:56:12;;;;;;;1999.90;999.90;;;;;;;8.74;34.32;95741.63;5115454;28;20054;-67
2024/01/16 10:58:43;;;;;;;1999.90;999.90;;;;;;;8.62;34.28;95731.72;5115399;28;20052;-64
2024/01/16 11:01:13;;;;;;;1999.90;999.90;;;;;;;8.82;34.85;95721.28;5115372;28;20047;-69
2024/01/16 11:03:47;;;;;;;1999.90;999.90;;;;;;;8.92;34.22;95729.56;5115349;28;20135;-69